60VA weather

H D H Heliport
Richmond, Virginia, United States

Public forecast

Using degrees Fahrenheit for public forecast. Weather courtesy of forecast.io.

METAR (pilot weather report)

Closest report is Hanover County Municipal Airport, 8.0 nm (14.8 km) NE. Retrieved 2019/01/18 21:54 UTC (55 minutes ago):

KOFP 182154Z AUTO 02003KT 10SM CLR 08/02 A3011 RMK AO2 SLP197 T00830022

TAF (pilot weather forecast)

Closest forecast is Richmond International Airport, 12.1 nm (22.5 km) ESE. Retrieved 2019/01/18 18:24 UTC (4 hours ago):

TAF KRIC 181722Z 1818/1918 32005KT P6SM FEW010 FM190500 00000KT P6SM BKN020 FM190900 00000KT P6SM BKN015 FM191500 10006KT 5SM BR OVC015